Time;durP1;ratioP1;P1;durP2;ratioP2;P2;SDS_P1;SDS_P2;PMS_P1;PMS_P2;Temp;Humidity;BMP_temperature;BMP_pressure;BME280_temperature;BME280_humidity;BME280_pressure;Samples;Min_cycle;Max_cycle;Signal;HPM_P1;HPM_P2
2023/06/24 00:00:06;;;;;;;10.50;7.13;;;;;;;13.70;100.00;94793.34;5031880;28;20075;-60
2023/06/24 00:02:36;;;;;;;8.80;6.65;;;;;;;13.72;100.00;94796.47;5031145;28;20870;-64
2023/06/24 00:05:05;;;;;;;12.43;7.50;;;;;;;13.75;100.00;94796.41;5030590;28;20049;-60
2023/06/24 00:07:31;;;;;;;9.57;6.40;;;;;;;13.75;100.00;94798.41;5031383;28;20038;-60
2023/06/24 00:09:58;;;;;;;13.18;8.80;;;;;;;13.76;100.00;94795.22;5031717;28;20103;-62
2023/06/24 00:12:26;;;;;;;12.10;7.93;;;;;;;13.78;100.00;94800.31;5030860;28;20057;-60
2023/06/24 00:14:53;;;;;;;12.18;7.00;;;;;;;13.76;100.00;94800.75;5031672;28;20039;-62
2023/06/24 00:17:19;;;;;;;9.80;7.13;;;;;;;13.75;100.00;94796.41;5029779;28;20072;-61
2023/06/24 00:19:46;;;;;;;10.13;7.13;;;;;;;13.74;100.00;94805.09;5030499;28;20044;-60
2023/06/24 00:22:13;;;;;;;10.57;7.05;;;;;;;13.69;100.00;94798.06;5031030;28;20410;-60
2023/06/24 00:24:42;;;;;;;9.27;6.95;;;;;;;13.66;100.00;94804.44;5031609;28;20053;-60
2023/06/24 00:27:10;;;;;;;9.77;6.80;;;;;;;13.65;100.00;94802.84;5031025;28;20072;-61
2023/06/24 00:29:37;;;;;;;9.38;6.78;;;;;;;13.59;100.00;94799.00;5032000;28;20396;-64
2023/06/24 00:32:05;;;;;;;9.93;6.70;;;;;;;13.59;100.00;94801.75;5031451;28;20041;-62
2023/06/24 00:34:32;;;;;;;11.95;7.32;;;;;;;13.49;100.00;94803.44;5030165;28;20069;-61
2023/06/24 00:36:58;;;;;;;10.82;7.10;;;;;;;13.33;100.00;94817.81;5030889;28;20046;-60
2023/06/24 00:39:25;;;;;;;11.73;7.68;;;;;;;12.99;100.00;94812.25;5030207;28;20378;-60
2023/06/24 00:41:52;;;;;;;9.23;6.90;;;;;;;13.19;100.00;94812.44;5030449;28;20486;-60
2023/06/24 00:44:19;;;;;;;10.00;7.13;;;;;;;13.35;100.00;94820.16;5029887;28;20049;-62
2023/06/24 00:46:46;;;;;;;12.63;7.80;;;;;;;13.34;100.00;94813.06;5030387;28;20056;-60
2023/06/24 00:49:14;;;;;;;9.73;6.70;;;;;;;13.36;100.00;94810.69;5030070;28;20529;-63
2023/06/24 00:51:47;;;;;;;10.57;7.00;;;;;;;13.25;100.00;94810.78;5030778;28;20578;-60
2023/06/24 00:54:14;;;;;;;10.68;6.60;;;;;;;13.23;100.00;94810.41;5012065;28;20456;-60
2023/06/24 00:56:42;;;;;;;10.30;6.57;;;;;;;13.19;100.00;94813.19;5030626;28;20068;-63
2023/06/24 00:59:13;;;;;;;10.00;6.70;;;;;;;13.19;100.00;94804.94;5029591;28;20057;-63
2023/06/24 01:01:40;;;;;;;9.98;6.78;;;;;;;13.16;100.00;94803.00;5030706;28;20045;-60
2023/06/24 01:04:07;;;;;;;11.00;6.93;;;;;;;13.09;100.00;94799.56;5030152;28;20453;-60
2023/06/24 01:06:36;;;;;;;10.02;7.10;;;;;;;13.08;100.00;94800.72;5029295;28;20128;-60
2023/06/24 01:09:04;;;;;;;9.87;6.97;;;;;;;12.99;100.00;94793.72;5030323;28;20052;-60
2023/06/24 01:11:32;;;;;;;9.80;6.85;;;;;;;12.91;100.00;94799.72;5029532;28;20045;-62
2023/06/24 01:13:59;;;;;;;14.05;9.07;;;;;;;12.67;100.00;94807.03;5030125;28;20041;-60
2023/06/24 01:16:51;;;;;;;11.88;7.30;;;;;;;12.44;100.00;94797.41;5029589;28;20740;-61
2023/06/24 01:19:40;;;;;;;10.13;7.15;;;;;;;12.57;100.00;94800.44;5029247;28;20037;-59
2023/06/24 01:22:17;;;;;;;11.57;7.30;;;;;;;12.65;100.00;94803.91;5061801;28;20055;-59
2023/06/24 01:24:43;;;;;;;11.25;7.25;;;;;;;12.63;100.00;94798.03;5029275;28;21536;-60
2023/06/24 01:27:41;;;;;;;9.68;6.90;;;;;;;12.67;100.00;94801.53;5029389;28;20057;-60
2023/06/24 01:30:26;;;;;;;9.55;6.57;;;;;;;12.58;100.00;94800.03;5037316;28;20071;-59
2023/06/24 01:33:04;;;;;;;10.90;6.82;;;;;;;12.65;100.00;94792.91;5017704;28;20036;-61
2023/06/24 01:35:34;;;;;;;9.70;6.63;;;;;;;12.59;100.00;94795.31;5043921;28;20375;-63
2023/06/24 01:38:12;;;;;;;11.18;7.18;;;;;;;12.58;100.00;94789.03;5029413;28;20409;-60
2023/06/24 01:40:44;;;;;;;9.85;6.82;;;;;;;12.62;100.00;94793.72;5028948;28;20433;-60
2023/06/24 01:43:13;;;;;;;12.00;6.90;;;;;;;12.63;100.00;94793.28;5029469;28;20049;-60
2023/06/24 01:45:47;;;;;;;10.57;6.70;;;;;;;12.51;100.00;94796.56;5030020;28;20037;-60
2023/06/24 01:48:18;;;;;;;10.07;6.57;;;;;;;12.52;100.00;94793.41;5028838;28;20037;-60
2023/06/24 01:50:58;;;;;;;11.18;6.60;;;;;;;12.53;100.00;94788.66;5029643;28;20041;-62
2023/06/24 01:53:27;;;;;;;11.05;6.43;;;;;;;12.52;100.00;94785.16;5028447;28;20041;-60
2023/06/24 01:55:58;;;;;;;9.57;6.57;;;;;;;12.53;100.00;94780.41;5029462;28;20057;-60
2023/06/24 01:58:25;;;;;;;9.50;6.63;;;;;;;12.53;100.00;94780.41;5028671;28;20555;-60
2023/06/24 02:00:53;;;;;;;9.83;6.80;;;;;;;12.54;100.00;94770.97;5027934;28;20056;-60
2023/06/24 02:03:21;;;;;;;9.65;6.72;;;;;;;12.27;100.00;94779.84;5028337;28;20071;-63
2023/06/24 02:05:50;;;;;;;11.40;6.68;;;;;;;12.08;100.00;94778.41;5029459;28;20051;-60
2023/06/24 02:08:17;;;;;;;9.43;6.78;;;;;;;12.14;100.00;94781.53;5028399;28;20037;-60
2023/06/24 02:10:46;;;;;;;10.48;6.60;;;;;;;12.12;100.00;94783.91;5029154;28;20360;-60
2023/06/24 02:13:13;;;;;;;9.03;6.67;;;;;;;12.17;100.00;94781.50;5028496;28;20050;-62
2023/06/24 02:15:41;;;;;;;9.80;6.68;;;;;;;12.22;100.00;94787.75;5024783;28;20041;-60
2023/06/24 02:18:09;;;;;;;10.10;6.40;;;;;;;12.27;100.00;94773.56;5014106;28;20107;-60
2023/06/24 02:20:38;;;;;;;11.95;7.00;;;;;;;12.28;100.00;94778.66;5027807;28;20744;-60
2023/06/24 02:23:08;;;;;;;10.32;6.90;;;;;;;12.28;100.00;94777.88;5028886;28;20063;-60
2023/06/24 02:25:38;;;;;;;10.53;6.90;;;;;;;12.26;100.00;94774.75;5027899;28;21599;-63
2023/06/24 02:28:07;;;;;;;11.15;6.50;;;;;;;12.14;100.00;94789.78;5028678;28;20445;-61
2023/06/24 02:30:38;;;;;;;10.90;6.70;;;;;;;12.13;100.00;94777.19;5029825;28;20697;-61
2023/06/24 02:33:06;;;;;;;9.77;6.65;;;;;;;12.10;100.00;94772.50;5028636;28;20110;-60
2023/06/24 02:35:33;;;;;;;10.80;7.25;;;;;;;12.05;100.00;94779.22;5028000;28;20037;-59
2023/06/24 02:38:01;;;;;;;8.90;6.53;;;;;;;11.90;100.00;94772.25;5028446;28;20114;-61
2023/06/24 02:40:28;;;;;;;9.52;6.80;;;;;;;11.89;100.00;94773.44;5028204;28;20063;-62
2023/06/24 02:42:55;;;;;;;9.00;6.55;;;;;;;11.94;100.00;94775.75;5026837;28;20057;-60
2023/06/24 02:45:22;;;;;;;9.40;6.45;;;;;;;11.94;100.00;94773.00;5026630;28;20049;-61
2023/06/24 02:47:50;;;;;;;10.70;6.80;;;;;;;11.94;100.00;94782.03;5028648;28;20046;-62
2023/06/24 02:50:18;;;;;;;8.87;6.40;;;;;;;11.95;100.00;94778.13;5027517;28;20067;-60
2023/06/24 02:52:45;;;;;;;9.95;7.07;;;;;;;11.94;100.00;94779.28;5028464;28;20067;-60
2023/06/24 02:55:13;;;;;;;9.43;6.63;;;;;;;11.93;100.00;94785.19;5027806;28;20159;-59
2023/06/24 02:57:40;;;;;;;11.48;6.78;;;;;;;11.91;100.00;94773.81;5028211;28;20055;-59
2023/06/24 03:00:14;;;;;;;10.27;6.82;;;;;;;11.88;100.00;94780.09;5027131;28;20471;-59
2023/06/24 03:02:43;;;;;;;10.50;7.20;;;;;;;11.87;100.00;94770.28;5027429;28;20064;-60
2023/06/24 03:05:10;;;;;;;10.35;6.63;;;;;;;11.80;100.00;94780.13;5014884;28;20060;-60
2023/06/24 03:07:38;;;;;;;10.32;6.65;;;;;;;11.56;100.00;94779.09;5027980;28;20893;-60
2023/06/24 03:10:05;;;;;;;9.85;6.82;;;;;;;11.62;100.00;94781.44;5028064;28;20118;-59
2023/06/24 03:12:32;;;;;;;11.10;6.72;;;;;;;11.65;100.00;94786.91;5027706;28;20045;-59
2023/06/24 03:15:00;;;;;;;9.23;6.37;;;;;;;11.66;100.00;94777.47;5026116;28;20045;-59
2023/06/24 03:17:27;;;;;;;11.45;6.97;;;;;;;11.71;100.00;94785.31;5016929;28;20045;-59
2023/06/24 03:19:54;;;;;;;9.73;6.30;;;;;;;11.72;100.00;94788.84;5025994;28;20393;-60
2023/06/24 03:22:22;;;;;;;9.95;6.38;;;;;;;11.76;100.00;94792.34;5027402;28;20057;-59
2023/06/24 03:24:49;;;;;;;9.10;6.47;;;;;;;11.74;100.00;94789.22;5028018;28;20045;-63
2023/06/24 03:27:15;;;;;;;9.50;6.43;;;;;;;11.79;100.00;94794.28;5027521;28;20064;-60
2023/06/24 03:29:42;;;;;;;11.27;6.72;;;;;;;11.83;100.00;94788.75;5059596;28;20037;-59
2023/06/24 03:32:09;;;;;;;10.07;6.55;;;;;;;11.88;100.00;94796.59;5027784;28;20055;-59
2023/06/24 03:34:36;;;;;;;9.50;6.63;;;;;;;11.91;100.00;94787.56;5027652;28;20080;-63
2023/06/24 03:37:04;;;;;;;11.05;6.90;;;;;;;11.72;100.00;94788.84;5026577;28;20037;-59
2023/06/24 03:39:31;;;;;;;9.27;6.57;;;;;;;11.76;100.00;94782.13;5027113;28;20048;-59
2023/06/24 03:41:58;;;;;;;9.95;6.85;;;;;;;11.79;100.00;94786.03;5026446;28;20045;-60
2023/06/24 03:44:24;;;;;;;10.48;6.60;;;;;;;11.91;100.00;94785.63;5027045;28;20052;-59
2023/06/24 03:46:51;;;;;;;8.93;6.38;;;;;;;11.96;100.00;94795.41;5027760;28;20072;-60
2023/06/24 03:49:18;;;;;;;14.18;9.90;;;;;;;11.99;100.00;94794.56;5027349;28;20037;-60
2023/06/24 03:51:45;;;;;;;13.00;8.57;;;;;;;12.05;100.00;94790.22;5028135;28;20048;-61
2023/06/24 03:54:11;;;;;;;11.50;8.15;;;;;;;12.16;100.00;94798.41;5044461;28;20090;-60
2023/06/24 03:56:38;;;;;;;12.73;7.13;;;;;;;11.98;100.00;94798.53;5031270;28;20513;-62
2023/06/24 03:59:05;;;;;;;8.82;6.15;;;;;;;11.99;100.00;94806.38;5031407;28;20038;-59
2023/06/24 04:01:32;;;;;;;8.65;6.30;;;;;;;11.88;100.00;94800.13;5030535;28;20046;-59
2023/06/24 04:03:59;;;;;;;9.07;6.60;;;;;;;12.06;100.00;94802.78;5031629;28;20110;-59
2023/06/24 04:06:26;;;;;;;8.57;6.10;;;;;;;12.20;100.00;94807.41;5030452;28;20491;-62
2023/06/24 04:08:53;;;;;;;9.23;6.30;;;;;;;12.33;100.00;94802.19;5031696;28;20041;-59
2023/06/24 04:11:20;;;;;;;8.80;6.03;;;;;;;12.48;100.00;94805.66;5030925;28;20080;-62
2023/06/24 04:13:48;;;;;;;10.90;6.60;;;;;;;12.55;100.00;94813.81;5031507;28;20079;-59
2023/06/24 04:16:15;;;;;;;9.13;6.23;;;;;;;12.66;100.00;94811.78;5018949;28;20046;-59
2023/06/24 04:18:42;;;;;;;8.55;5.78;;;;;;;12.76;100.00;94818.38;5015703;28;20041;-60
2023/06/24 04:21:08;;;;;;;10.00;6.30;;;;;;;12.73;100.00;94816.44;5029781;28;20060;-63
2023/06/24 04:23:35;;;;;;;8.95;6.20;;;;;;;12.82;100.00;94813.19;5031717;28;20048;-61
2023/06/24 04:26:02;;;;;;;9.35;6.40;;;;;;;12.76;100.00;94812.88;5030409;28;20057;-59
2023/06/24 04:28:29;;;;;;;9.27;6.40;;;;;;;13.81;100.00;94818.03;5029727;28;20050;-60
2023/06/24 04:30:56;;;;;;;9.98;7.00;;;;;;;15.33;100.00;94820.75;5036286;28;20048;-60
2023/06/24 04:33:24;;;;;;;10.02;6.80;;;;;;;16.60;100.00;94806.59;5030600;28;20465;-61
2023/06/24 04:35:51;;;;;;;9.48;7.15;;;;;;;17.18;100.00;94808.69;5031223;28;20053;-61
2023/06/24 04:38:18;;;;;;;8.18;6.55;;;;;;;18.41;100.00;94812.34;5029553;28;20056;-63
2023/06/24 04:40:45;;;;;;;9.27;6.60;;;;;;;19.10;98.08;94814.50;5030982;28;20543;-60
2023/06/24 04:43:12;;;;;;;8.05;6.68;;;;;;;18.93;97.22;94811.09;5030765;28;20124;-62
2023/06/24 04:45:38;;;;;;;9.40;6.65;;;;;;;18.51;97.17;94805.69;5027248;28;20409;-60
2023/06/24 04:48:05;;;;;;;8.43;6.20;;;;;;;17.63;100.00;94807.09;5015771;28;20406;-62
2023/06/24 04:50:32;;;;;;;11.23;7.20;;;;;;;15.69;100.00;94814.50;5030335;28;20053;-61
2023/06/24 04:53:01;;;;;;;9.63;7.70;;;;;;;14.50;100.00;94818.59;5031265;28;20049;-61
2023/06/24 04:55:31;;;;;;;10.35;7.50;;;;;;;14.21;100.00;94823.78;5030166;28;20469;-59
2023/06/24 04:57:58;;;;;;;11.02;7.30;;;;;;;14.26;100.00;94826.06;5031070;28;20202;-60
2023/06/24 05:00:25;;;;;;;10.82;7.00;;;;;;;14.53;100.00;94820.53;5029557;28;20411;-59
2023/06/24 05:02:52;;;;;;;11.40;7.55;;;;;;;14.57;100.00;94824.84;5022792;28;20487;-58
2023/06/24 05:05:20;;;;;;;10.33;7.53;;;;;;;14.79;100.00;94827.25;5026448;28;20045;-59
2023/06/24 05:07:48;;;;;;;13.40;8.52;;;;;;;14.67;100.00;94828.63;5030923;28;20063;-62
2023/06/24 05:10:15;;;;;;;11.55;8.43;;;;;;;14.63;100.00;94819.63;5030099;28;20045;-58
2023/06/24 05:12:41;;;;;;;12.10;8.00;;;;;;;14.58;100.00;94822.84;5030648;28;20060;-59
2023/06/24 05:15:09;;;;;;;10.90;8.05;;;;;;;14.96;100.00;94820.63;5030344;28;20057;-65
2023/06/24 05:17:36;;;;;;;10.80;7.40;;;;;;;16.10;100.00;94813.28;5030570;28;20056;-63
2023/06/24 05:20:04;;;;;;;10.05;7.53;;;;;;;17.64;100.00;94817.75;5030401;28;20047;-62
2023/06/24 05:22:31;;;;;;;8.80;7.28;;;;;;;18.52;100.00;94812.00;5029611;28;20087;-60
2023/06/24 05:24:58;;;;;;;9.43;7.45;;;;;;;18.96;100.00;94817.78;5030343;28;20106;-60
2023/06/24 05:27:24;;;;;;;9.18;7.30;;;;;;;19.99;94.28;94809.03;5030026;28;20420;-59
2023/06/24 05:29:51;;;;;;;9.60;7.23;;;;;;;20.65;88.07;94811.69;5031759;28;20067;-60
2023/06/24 05:32:19;;;;;;;9.00;6.95;;;;;;;21.47;84.46;94804.69;5029726;28;20072;-60
2023/06/24 05:34:47;;;;;;;9.35;7.03;;;;;;;22.18;80.61;94805.56;5030049;28;20045;-60
2023/06/24 05:37:14;;;;;;;9.90;7.38;;;;;;;22.62;75.16;94794.72;5029928;28;20052;-62
2023/06/24 05:39:41;;;;;;;9.25;7.28;;;;;;;21.55;78.05;94805.97;5029906;28;20048;-63
2023/06/24 05:42:08;;;;;;;8.17;6.80;;;;;;;22.68;74.08;94817.22;5045363;28;20110;-60
2023/06/24 05:44:35;;;;;;;7.55;6.53;;;;;;;24.17;69.59;94807.31;5020868;28;20660;-60
2023/06/24 05:47:02;;;;;;;7.30;6.38;;;;;;;25.63;62.62;94808.69;5030185;28;20041;-60
2023/06/24 05:49:28;;;;;;;7.40;6.32;;;;;;;26.59;57.87;94806.09;5029482;28;20049;-60
2023/06/24 05:51:56;;;;;;;7.13;5.40;;;;;;;28.09;52.11;94796.13;5029491;28;20041;-63
2023/06/24 05:54:23;;;;;;;7.40;5.77;;;;;;;26.37;53.76;94801.03;5029261;28;20430;-61
2023/06/24 05:56:50;;;;;;;8.20;5.93;;;;;;;26.75;52.57;94801.88;5029703;28;20049;-60
2023/06/24 05:59:16;;;;;;;7.10;6.03;;;;;;;25.62;55.67;94814.81;5029120;28;20049;-60
2023/06/24 06:01:43;;;;;;;7.63;6.30;;;;;;;26.14;56.03;94808.47;5029748;28;20041;-61
2023/06/24 06:04:10;;;;;;;8.00;6.30;;;;;;;25.76;56.65;94808.34;5029342;28;20064;-62
2023/06/24 06:06:36;;;;;;;8.90;5.80;;;;;;;26.52;52.86;94804.47;5013484;28;20046;-65
2023/06/24 06:09:05;;;;;;;7.22;5.43;;;;;;;28.55;48.02;94805.41;5012319;28;20049;-62
2023/06/24 06:11:31;;;;;;;8.00;5.63;;;;;;;28.01;49.08;94812.00;5028238;28;20041;-65
2023/06/24 06:13:58;;;;;;;6.15;5.32;;;;;;;29.73;45.63;94807.28;5028924;28;20029;-62
2023/06/24 06:16:25;;;;;;;6.55;5.57;;;;;;;28.37;46.48;94814.38;5028436;28;20043;-62
2023/06/24 06:18:52;;;;;;;9.30;5.60;;;;;;;28.41;46.25;94809.22;5028032;28;20120;-63
2023/06/24 06:21:19;;;;;;;7.28;5.72;;;;;;;29.38;44.04;94811.50;5028256;28;20417;-62
2023/06/24 06:23:45;;;;;;;6.35;4.93;;;;;;;30.64;40.94;94807.53;5027100;28;20041;-62
2023/06/24 06:26:12;;;;;;;6.82;4.88;;;;;;;31.95;37.65;94804.91;5026473;28;20102;-65
2023/06/24 06:28:39;;;;;;;5.88;4.90;;;;;;;32.35;35.08;94799.47;5028317;28;20045;-61
2023/06/24 06:31:06;;;;;;;6.40;4.20;;;;;;;31.31;35.62;94805.38;5039889;28;20079;-61
2023/06/24 06:33:32;;;;;;;4.88;3.78;;;;;;;30.44;34.42;94805.88;5027894;28;20045;-64
2023/06/24 06:35:59;;;;;;;5.88;4.10;;;;;;;26.82;42.06;94809.84;5028437;28;20041;-63
2023/06/24 06:38:26;;;;;;;5.05;3.95;;;;;;;28.01;40.12;94805.56;5028033;28;20071;-62
2023/06/24 06:40:53;;;;;;;5.00;3.90;;;;;;;28.71;38.80;94811.59;5028132;28;20041;-61
2023/06/24 06:43:21;;;;;;;4.83;3.80;;;;;;;26.91;39.65;94815.28;5028129;28;20045;-61
2023/06/24 06:45:48;;;;;;;5.32;4.00;;;;;;;24.82;44.01;94812.19;5026906;28;20050;-61
2023/06/24 06:48:15;;;;;;;4.68;3.80;;;;;;;24.49;45.25;94828.00;5027679;28;20382;-62
2023/06/24 06:50:41;;;;;;;5.30;3.80;;;;;;;25.86;43.55;94812.53;5028182;28;20513;-65
2023/06/24 06:53:08;;;;;;;5.68;3.80;;;;;;;26.63;41.80;94812.28;5027223;28;20042;-62
2023/06/24 06:55:37;;;;;;;5.40;4.20;;;;;;;25.62;42.03;94817.63;5027558;28;20592;-61
2023/06/24 06:58:04;;;;;;;5.35;4.03;;;;;;;25.39;43.67;94814.53;5028307;28;20037;-62
2023/06/24 07:00:31;;;;;;;5.85;3.85;;;;;;;27.78;40.33;94811.13;5027793;28;20081;-67
2023/06/24 07:02:57;;;;;;;5.00;3.75;;;;;;;27.40;39.48;94818.16;5043018;28;20051;-62
2023/06/24 07:05:24;;;;;;;5.55;3.95;;;;;;;26.42;40.80;94814.34;5036621;28;20050;-65
2023/06/24 07:07:51;;;;;;;5.57;4.00;;;;;;;28.20;39.83;94822.81;5008825;28;20064;-62
2023/06/24 07:10:18;;;;;;;5.53;3.65;;;;;;;27.85;39.45;94815.53;5021145;28;20049;-63
2023/06/24 07:12:45;;;;;;;4.53;3.90;;;;;;;28.32;38.24;94812.31;5028726;28;20042;-61
2023/06/24 07:15:12;;;;;;;5.15;3.60;;;;;;;28.39;36.87;94809.78;5027082;28;20371;-61
2023/06/24 07:17:40;;;;;;;5.20;3.65;;;;;;;27.20;38.84;94805.72;5028838;28;20045;-61
2023/06/24 07:20:07;;;;;;;5.00;3.70;;;;;;;27.65;38.73;94805.97;5028513;28;20053;-64
2023/06/24 07:22:34;;;;;;;5.22;3.80;;;;;;;26.18;40.71;94809.03;5026300;28;20041;-61
2023/06/24 07:25:00;;;;;;;4.65;3.67;;;;;;;26.97;40.06;94816.09;5043752;28;20063;-65
2023/06/24 07:27:27;;;;;;;4.85;3.60;;;;;;;28.58;38.32;94806.47;5027864;28;20049;-63
2023/06/24 07:29:54;;;;;;;4.82;3.60;;;;;;;28.92;36.93;94812.88;5046805;28;20063;-61
2023/06/24 07:32:21;;;;;;;5.07;3.73;;;;;;;31.19;34.51;94807.56;5031790;28;20053;-62
2023/06/24 07:34:47;;;;;;;4.25;3.35;;;;;;;30.73;34.04;94803.59;5032163;28;20068;-60
2023/06/24 07:37:14;;;;;;;6.03;3.72;;;;;;;31.68;32.52;94801.13;5031866;28;20049;-61
2023/06/24 07:39:51;;;;;;;6.07;3.80;;;;;;;31.26;32.83;94798.47;5020573;28;20087;-65
2023/06/24 07:42:21;;;;;;;5.68;3.67;;;;;;;29.47;35.64;94794.25;5032171;28;20064;-65
2023/06/24 07:44:48;;;;;;;5.00;3.87;;;;;;;29.06;36.52;94797.69;5032091;28;20042;-63
2023/06/24 07:47:17;;;;;;;4.47;3.50;;;;;;;32.28;32.38;94789.50;5031457;28;20394;-64
2023/06/24 07:49:44;;;;;;;5.43;3.92;;;;;;;29.84;33.53;94789.47;5031885;28;20045;-61
2023/06/24 07:52:11;;;;;;;5.55;4.05;;;;;;;29.40;34.30;94791.97;5031708;28;20041;-60
2023/06/24 07:54:37;;;;;;;5.28;3.70;;;;;;;31.25;33.19;94791.28;5030522;28;20168;-60
2023/06/24 07:57:04;;;;;;;5.27;4.13;;;;;;;31.95;31.47;94797.16;5032008;28;20053;-61
2023/06/24 07:59:31;;;;;;;4.32;3.80;;;;;;;30.44;33.47;94791.72;5031446;28;20049;-65
2023/06/24 08:01:58;;;;;;;6.50;4.30;;;;;;;28.02;35.74;94790.22;5032061;28;20037;-61
2023/06/24 08:04:24;;;;;;;5.43;4.13;;;;;;;29.25;34.66;94783.78;5031618;28;20060;-60
2023/06/24 08:06:52;;;;;;;4.93;3.90;;;;;;;29.75;35.20;94786.97;5047365;28;20076;-60
2023/06/24 08:09:19;;;;;;;5.63;4.20;;;;;;;29.23;34.50;94794.06;5030052;28;20047;-61
2023/06/24 08:11:45;;;;;;;6.35;4.47;;;;;;;28.54;35.71;94791.84;5030415;28;20399;-61
2023/06/24 08:14:12;;;;;;;5.78;4.25;;;;;;;28.02;36.90;94790.22;5031624;28;20045;-61
2023/06/24 08:16:39;;;;;;;5.05;4.30;;;;;;;30.39;33.86;94775.53;5031390;28;20047;-65
2023/06/24 08:19:05;;;;;;;5.35;3.92;;;;;;;30.48;32.88;94774.44;5031619;28;20060;-61
2023/06/24 08:21:34;;;;;;;6.20;4.10;;;;;;;30.06;33.84;94772.41;5030316;28;20049;-60
2023/06/24 08:24:01;;;;;;;5.85;4.60;;;;;;;27.89;38.11;94785.06;5031468;28;20041;-61
2023/06/24 08:26:27;;;;;;;7.22;4.85;;;;;;;27.44;38.85;94777.16;5030609;28;20433;-61
2023/06/24 08:28:54;;;;;;;5.65;4.30;;;;;;;28.14;37.29;94776.88;5031542;28;20516;-64
2023/06/24 08:31:22;;;;;;;6.35;4.50;;;;;;;25.81;41.17;94787.94;5036584;28;20063;-61
2023/06/24 08:33:54;;;;;;;5.20;4.30;;;;;;;26.87;40.57;94776.09;5031645;28;20042;-63
2023/06/24 08:36:27;;;;;;;4.97;4.30;;;;;;;28.69;37.63;94781.03;5030916;28;20397;-60
2023/06/24 08:38:54;;;;;;;5.38;4.20;;;;;;;29.03;36.57;94778.16;5031591;28;20543;-60
2023/06/24 08:41:22;;;;;;;5.03;4.10;;;;;;;27.05;38.59;94774.16;5028466;28;20048;-60
2023/06/24 08:43:49;;;;;;;5.18;4.32;;;;;;;24.61;44.41;94784.06;5031306;28;20052;-60
2023/06/24 08:46:17;;;;;;;5.83;4.73;;;;;;;26.24;42.17;94779.69;5029462;28;20045;-64
2023/06/24 08:48:45;;;;;;;6.82;4.50;;;;;;;26.50;41.20;94790.91;5030663;28;20041;-64
2023/06/24 08:51:17;;;;;;;5.68;4.13;;;;;;;28.52;38.05;94769.00;5030822;28;20405;-61
2023/06/24 08:53:45;;;;;;;5.13;4.35;;;;;;;28.36;37.33;94770.50;5030818;28;20037;-60
2023/06/24 08:56:13;;;;;;;5.30;4.38;;;;;;;29.56;36.53;94770.56;5023709;28;20437;-60
2023/06/24 08:58:40;;;;;;;6.27;4.90;;;;;;;29.68;36.28;94763.56;5021173;28;20037;-61
2023/06/24 09:01:08;;;;;;;5.03;3.95;;;;;;;28.78;36.43;94775.13;5030235;28;20072;-61
2023/06/24 09:03:35;;;;;;;5.78;4.32;;;;;;;30.67;33.52;94764.75;5028911;28;21490;-61
2023/06/24 09:06:02;;;;;;;5.90;4.10;;;;;;;31.74;32.68;94754.34;5030054;28;20049;-60
2023/06/24 09:08:29;;;;;;;6.22;4.30;;;;;;;27.45;37.91;94764.63;5061604;28;20056;-62
2023/06/24 09:10:56;;;;;;;6.43;4.53;;;;;;;28.10;37.71;94768.66;5045212;28;20049;-61
2023/06/24 09:13:43;;;;;;;6.00;4.50;;;;;;;28.53;36.06;94768.44;5029331;28;20060;-60
2023/06/24 09:16:14;;;;;;;4.95;4.10;;;;;;;29.83;34.21;94763.25;5029627;28;20048;-60
2023/06/24 09:18:41;;;;;;;4.88;3.97;;;;;;;33.45;29.02;94764.56;5029582;28;20055;-61
2023/06/24 09:21:10;;;;;;;5.45;4.07;;;;;;;35.37;26.82;94749.47;5029718;28;20349;-64
2023/06/24 09:23:37;;;;;;;4.60;3.70;;;;;;;35.82;25.90;94744.59;5028980;28;20589;-65
2023/06/24 09:26:05;;;;;;;5.82;3.92;;;;;;;33.23;27.50;94752.28;5029905;28;20068;-60
2023/06/24 09:28:34;;;;;;;5.43;4.40;;;;;;;27.66;35.38;94758.81;5029283;28;20056;-65
2023/06/24 09:31:08;;;;;;;5.55;4.30;;;;;;;26.72;37.22;94749.34;5035194;28;20053;-60
2023/06/24 09:33:39;;;;;;;6.18;4.20;;;;;;;31.20;31.25;94743.91;5028658;28;20572;-60
2023/06/24 09:36:06;;;;;;;5.20;4.03;;;;;;;28.69;34.44;94747.13;5029569;28;20041;-60
2023/06/24 09:38:36;;;;;;;5.32;4.13;;;;;;;24.94;39.54;94752.13;5028491;28;20417;-60
2023/06/24 09:41:04;;;;;;;5.50;4.40;;;;;;;28.72;34.38;94751.00;5029406;28;20029;-60
2023/06/24 09:43:43;;;;;;;6.90;4.45;;;;;;;31.26;30.23;94739.69;5028518;28;20609;-60
2023/06/24 09:46:11;;;;;;;6.35;3.92;;;;;;;31.36;30.53;94731.59;5028938;28;20064;-60
2023/06/24 09:48:38;;;;;;;5.83;4.33;;;;;;;28.84;33.46;94746.88;5028011;28;20061;-60
2023/06/24 09:51:05;;;;;;;5.60;4.20;;;;;;;27.00;36.30;94732.63;5029159;28;20095;-61
2023/06/24 09:53:35;;;;;;;6.10;4.82;;;;;;;24.64;41.73;94735.38;5027609;28;20114;-61
2023/06/24 09:56:04;;;;;;;7.18;4.78;;;;;;;27.48;38.24;94726.94;5019821;28;20054;-61
2023/06/24 09:58:32;;;;;;;6.30;4.97;;;;;;;29.57;34.23;94726.84;5010434;28;20042;-61
2023/06/24 10:01:04;;;;;;;5.27;4.20;;;;;;;28.67;33.82;94732.75;5029643;28;20046;-60
2023/06/24 10:03:36;;;;;;;5.07;4.20;;;;;;;29.19;33.91;94715.19;5029038;28;20045;-64
2023/06/24 10:06:05;;;;;;;5.55;4.00;;;;;;;28.27;34.76;94724.31;5029422;28;20053;-61
2023/06/24 10:08:33;;;;;;;4.80;3.88;;;;;;;28.35;34.95;94718.88;5029020;28;20067;-60
2023/06/24 10:11:01;;;;;;;5.47;4.40;;;;;;;25.06;39.72;94724.97;5029465;28;20049;-62
2023/06/24 10:13:28;;;;;;;6.57;4.23;;;;;;;25.73;39.60;94713.72;5028786;28;20129;-63
2023/06/24 10:15:58;;;;;;;6.22;5.05;;;;;;;28.78;34.10;94712.97;5029294;28;20038;-61
2023/06/24 10:18:39;;;;;;;5.45;4.13;;;;;;;28.12;34.89;94711.72;5028642;28;20122;-60
2023/06/24 10:21:07;;;;;;;6.10;4.78;;;;;;;24.40;42.00;94727.06;5028249;28;20041;-60
2023/06/24 10:23:41;;;;;;;6.35;4.50;;;;;;;25.89;38.40;94717.97;5028210;28;20512;-61
2023/06/24 10:26:25;;;;;;;5.30;3.90;;;;;;;28.62;35.67;94706.06;5028227;28;20102;-61
2023/06/24 10:29:07;;;;;;;5.13;4.10;;;;;;;30.21;31.87;94692.75;5028386;28;20206;-60
2023/06/24 10:31:39;;;;;;;7.80;4.07;;;;;;;29.00;32.57;94700.84;5028891;28;20033;-61
2023/06/24 10:34:18;;;;;;;4.90;3.70;;;;;;;28.88;32.82;94688.03;5029261;28;20045;-60
2023/06/24 10:37:04;;;;;;;6.47;3.90;;;;;;;27.36;34.55;94699.25;5028067;28;20037;-60
2023/06/24 10:39:40;;;;;;;6.37;4.73;;;;;;;24.13;39.97;94688.94;5028075;28;20041;-60
2023/06/24 10:42:26;;;;;;;5.13;4.28;;;;;;;26.21;37.68;94695.50;5028976;28;20047;-61
2023/06/24 10:44:57;;;;;;;5.57;4.40;;;;;;;26.75;36.15;94692.81;5027783;28;20092;-64
2023/06/24 10:47:26;;;;;;;5.13;4.00;;;;;;;27.54;34.02;94681.09;5028612;28;20107;-61
2023/06/24 10:49:53;;;;;;;6.20;4.10;;;;;;;27.77;34.19;94684.72;5028915;28;20045;-62
2023/06/24 10:52:22;;;;;;;6.10;4.17;;;;;;;27.65;35.57;94673.44;5028424;28;20042;-60
2023/06/24 10:54:49;;;;;;;5.47;4.20;;;;;;;27.57;35.44;94678.03;5027724;28;20041;-64
2023/06/24 10:57:24;;;;;;;5.10;3.97;;;;;;;27.11;34.90;94679.16;5010742;28;20042;-60
2023/06/24 10:59:52;;;;;;;5.78;3.92;;;;;;;25.89;34.94;94673.72;5020069;28;20045;-60
2023/06/24 11:02:21;;;;;;;5.45;3.80;;;;;;;26.27;34.45;94666.13;5027834;28;20041;-60
2023/06/24 11:04:54;;;;;;;5.73;4.20;;;;;;;24.50;38.56;94668.84;5027847;28;20041;-63
2023/06/24 11:07:22;;;;;;;5.22;4.10;;;;;;;24.49;39.28;94668.06;5059607;28;20057;-60
2023/06/24 11:09:51;;;;;;;5.15;4.32;;;;;;;22.37;44.47;94669.28;5027918;28;20483;-60
2023/06/24 11:12:19;;;;;;;6.63;4.50;;;;;;;22.43;44.96;94670.94;5027975;28;20394;-60
2023/06/24 11:14:46;;;;;;;5.80;4.22;;;;;;;23.76;42.15;94649.31;5028403;28;20048;-66
2023/06/24 11:17:12;;;;;;;5.77;4.40;;;;;;;24.54;40.74;94654.63;5025137;28;20064;-60
2023/06/24 11:19:40;;;;;;;6.18;3.97;;;;;;;23.91;39.19;94648.06;5030928;28;20478;-63
2023/06/24 11:22:08;;;;;;;6.68;4.40;;;;;;;23.85;39.82;94649.25;5023919;28;20110;-62
2023/06/24 11:24:35;;;;;;;6.10;4.28;;;;;;;23.80;40.88;94645.06;5027756;28;21805;-60
2023/06/24 11:27:04;;;;;;;6.50;4.25;;;;;;;25.26;39.58;94635.09;5027909;28;20053;-60
2023/06/24 11:29:32;;;;;;;5.87;4.30;;;;;;;24.50;41.14;94633.13;5030471;28;20045;-60
2023/06/24 11:32:00;;;;;;;5.40;4.15;;;;;;;25.33;39.44;94635.91;5035458;28;20114;-61